createdAt,value
2023-03-03T00:00:54.938Z,16.07
2023-03-03T00:03:24.366Z,10.53
2023-03-03T00:05:52.400Z,14.93
2023-03-03T00:08:21.722Z,10.73
2023-03-03T00:10:49.212Z,5.50
2023-03-03T00:13:20.167Z,12.07
2023-03-03T00:15:48.225Z,15.37
2023-03-03T00:18:23.538Z,10.80
2023-03-03T00:20:54.726Z,13.63
2023-03-03T00:23:31.501Z,12.20
2023-03-03T00:25:59.641Z,14.80
2023-03-03T00:28:31.329Z,18.37
2023-03-03T00:31:00.940Z,13.60
2023-03-03T00:33:33.230Z,11.00
2023-03-03T00:36:22.327Z,18.77
2023-03-03T00:38:50.724Z,11.80
2023-03-03T00:41:23.461Z,16.33
2023-03-03T00:43:53.091Z,13.87
2023-03-03T00:46:22.402Z,10.57
2023-03-03T00:48:52.416Z,9.80
2023-03-03T00:51:34.340Z,10.30
2023-03-03T00:54:02.117Z,11.17
2023-03-03T00:56:29.868Z,12.17
2023-03-03T00:58:59.191Z,18.60
2023-03-03T01:01:29.515Z,13.27
2023-03-03T01:03:57.088Z,15.27
2023-03-03T01:06:24.951Z,23.93
2023-03-03T01:08:52.668Z,16.07
2023-03-03T01:11:24.816Z,15.10
2023-03-03T01:13:54.210Z,15.50
2023-03-03T01:16:23.186Z,15.53
2023-03-03T01:18:51.544Z,11.20
2023-03-03T01:21:19.061Z,20.27
2023-03-03T01:23:46.518Z,19.03
2023-03-03T01:26:16.402Z,17.27
2023-03-03T01:28:43.934Z,14.57
2023-03-03T01:31:11.764Z,20.23
2023-03-03T01:33:41.196Z,18.03
2023-03-03T01:36:09.279Z,14.03
2023-03-03T01:38:37.427Z,12.97
2023-03-03T01:41:05.315Z,13.80
2023-03-03T01:43:34.597Z,14.40
2023-03-03T01:46:32.137Z,16.07
2023-03-03T01:49:03.787Z,13.17
2023-03-03T01:51:35.372Z,13.70
2023-03-03T01:54:05.632Z,18.80
2023-03-03T01:56:33.633Z,13.27
2023-03-03T01:59:04.967Z,13.00
2023-03-03T02:01:34.706Z,23.33
2023-03-03T02:04:04.764Z,14.00
2023-03-03T02:06:37.893Z,16.90
2023-03-03T02:09:12.183Z,13.70
2023-03-03T02:11:42.966Z,17.27
2023-03-03T02:14:11.573Z,23.03
2023-03-03T02:16:44.071Z,15.80
2023-03-03T02:19:23.093Z,19.30
2023-03-03T02:21:51.059Z,21.47
2023-03-03T02:24:26.481Z,19.13
2023-03-03T02:26:55.644Z,20.03
2023-03-03T02:29:23.218Z,18.83
2023-03-03T02:31:51.164Z,10.70
2023-03-03T02:34:18.729Z,18.57
2023-03-03T02:36:46.510Z,18.03
2023-03-03T02:39:18.156Z,19.80
2023-03-03T02:41:51.288Z,16.73
2023-03-03T02:44:23.384Z,14.43
2023-03-03T02:46:52.636Z,18.83
2023-03-03T02:49:25.507Z,16.00
2023-03-03T02:51:53.186Z,19.93
2023-03-03T02:54:25.495Z,17.77
2023-03-03T02:56:53.381Z,21.93
2023-03-03T02:59:23.388Z,14.33
2023-03-03T03:01:52.233Z,16.93
2023-03-03T03:04:23.522Z,15.87
2023-03-03T03:06:52.563Z,18.03
2023-03-03T03:09:22.659Z,23.70
2023-03-03T03:11:54.584Z,19.87
2023-03-03T03:14:27.082Z,20.97
2023-03-03T03:16:55.764Z,20.40
2023-03-03T03:19:23.261Z,21.13
2023-03-03T03:21:51.926Z,17.70
2023-03-03T03:24:19.516Z,18.70
2023-03-03T03:26:54.146Z,18.33
2023-03-03T03:29:23.292Z,20.17
2023-03-03T03:31:52.142Z,14.83
2023-03-03T03:34:19.898Z,15.60
2023-03-03T03:36:49.843Z,15.30
2023-03-03T03:39:19.349Z,15.63
2023-03-03T03:41:48.950Z,21.33
2023-03-03T03:44:16.879Z,17.50
2023-03-03T03:46:44.480Z,18.90
2023-03-03T03:49:13.726Z,19.70
2023-03-03T03:51:41.935Z,14.00
2023-03-03T03:54:13.475Z,13.43
2023-03-03T03:56:41.882Z,20.93
2023-03-03T03:59:10.173Z,18.67
2023-03-03T04:01:39.064Z,18.27
2023-03-03T04:04:06.717Z,19.13
2023-03-03T04:06:36.580Z,18.53
2023-03-03T04:09:06.384Z,15.67
2023-03-03T04:11:34.393Z,20.83
2023-03-03T04:14:04.530Z,14.67
2023-03-03T04:16:32.893Z,17.20
2023-03-03T04:19:00.903Z,20.63
2023-03-03T04:21:28.828Z,14.90
2023-03-03T04:24:00.598Z,20.70
2023-03-03T04:26:30.955Z,14.40
2023-03-03T04:29:00.173Z,17.90
2023-03-03T04:31:30.411Z,19.17
2023-03-03T04:33:58.757Z,18.33
2023-03-03T04:36:27.027Z,14.07
2023-03-03T04:38:54.687Z,18.30
2023-03-03T04:41:24.458Z,18.13
2023-03-03T04:43:52.037Z,16.40
2023-03-03T04:46:19.844Z,16.70
2023-03-03T04:48:47.366Z,15.27
2023-03-03T04:51:16.625Z,23.23
2023-03-03T04:53:45.566Z,13.40
2023-03-03T04:56:13.256Z,14.77
2023-03-03T04:58:42.147Z,13.80
2023-03-03T05:01:13.543Z,16.77
2023-03-03T05:03:41.344Z,15.57
2023-03-03T05:06:09.035Z,17.07
2023-03-03T05:08:36.585Z,13.90
2023-03-03T05:11:05.273Z,16.23
2023-03-03T05:13:32.878Z,14.93
2023-03-03T05:16:02.100Z,12.13
2023-03-03T05:18:29.706Z,14.93
2023-03-03T05:20:57.354Z,13.73
2023-03-03T05:23:26.085Z,14.17
2023-03-03T05:25:53.771Z,16.13
2023-03-03T05:28:21.443Z,16.57
2023-03-03T05:30:48.906Z,11.27
2023-03-03T05:33:19.977Z,15.00
2023-03-03T05:35:47.724Z,13.90
2023-03-03T05:38:15.205Z,16.43
2023-03-03T05:40:43.795Z,13.30
2023-03-03T05:43:11.453Z,20.10
2023-03-03T05:45:38.927Z,19.40
2023-03-03T05:48:06.826Z,15.97
2023-03-03T05:50:35.621Z,17.30
2023-03-03T05:53:03.371Z,12.53
2023-03-03T05:55:31.123Z,24.80
2023-03-03T05:57:58.651Z,14.33
2023-03-03T06:00:26.696Z,15.43
2023-03-03T06:02:54.322Z,16.10
2023-03-03T06:05:22.269Z,16.40
2023-03-03T06:07:51.307Z,9.70
2023-03-03T06:10:19.800Z,16.20
2023-03-03T06:12:52.133Z,17.03
2023-03-03T06:15:19.800Z,15.73
2023-03-03T06:17:50.306Z,21.10
2023-03-03T06:20:18.254Z,15.27
2023-03-03T06:22:45.838Z,16.87
2023-03-03T06:25:15.784Z,16.13
2023-03-03T06:27:43.620Z,22.53
2023-03-03T06:30:15.525Z,15.37
2023-03-03T06:32:43.378Z,16.63
2023-03-03T06:35:11.688Z,12.67
2023-03-03T06:37:40.660Z,14.50
2023-03-03T06:40:09.438Z,19.33
2023-03-03T06:42:41.672Z,14.23
2023-03-03T06:45:10.163Z,15.57
2023-03-03T06:47:37.621Z,12.97
2023-03-03T06:50:05.603Z,19.37
2023-03-03T06:52:33.223Z,21.87
2023-03-03T06:55:11.764Z,20.67
2023-03-03T06:57:42.310Z,17.67
2023-03-03T07:00:20.038Z,13.67
2023-03-03T07:02:48.046Z,15.93
2023-03-03T07:05:18.699Z,16.90
2023-03-03T07:07:46.524Z,11.17
2023-03-03T07:10:22.307Z,17.97
2023-03-03T07:12:51.098Z,17.93
2023-03-03T07:15:22.433Z,10.90
2023-03-03T07:17:53.642Z,16.37
2023-03-03T07:20:23.050Z,19.07
2023-03-03T07:22:51.470Z,12.60
2023-03-03T07:25:29.863Z,15.40
2023-03-03T07:28:01.000Z,19.23
2023-03-03T07:30:30.228Z,17.50
2023-03-03T07:32:59.632Z,14.93
2023-03-03T07:35:43.514Z,19.37
2023-03-03T07:38:32.825Z,20.30
2023-03-03T07:41:03.930Z,14.90
2023-03-03T07:43:36.654Z,22.27
2023-03-03T07:46:22.812Z,18.53
2023-03-03T07:48:51.760Z,20.07
2023-03-03T07:51:23.037Z,15.10
2023-03-03T07:53:51.605Z,22.50
2023-03-03T07:56:29.130Z,23.80
2023-03-03T07:58:59.326Z,25.27
2023-03-03T08:01:39.574Z,20.30
2023-03-03T08:04:17.613Z,20.80
2023-03-03T08:06:50.746Z,23.20
2023-03-03T08:09:47.502Z,18.20
2023-03-03T08:12:34.828Z,19.70
2023-03-03T08:15:22.763Z,14.30
2023-03-03T08:17:52.086Z,15.20
2023-03-03T08:20:49.351Z,15.80
2023-03-03T08:23:19.123Z,17.27
2023-03-03T08:25:47.150Z,17.47
2023-03-03T08:28:15.518Z,21.00
2023-03-03T08:30:45.626Z,22.40
2023-03-03T08:33:13.934Z,17.50
2023-03-03T08:35:42.031Z,22.77
2023-03-03T08:38:10.658Z,17.17
2023-03-03T08:40:38.859Z,12.53
2023-03-03T08:43:06.705Z,15.43
2023-03-03T08:45:35.297Z,16.80
2023-03-03T08:48:06.014Z,21.20
2023-03-03T08:50:33.936Z,17.50
2023-03-03T08:53:01.434Z,17.73
2023-03-03T08:55:28.940Z,19.97
2023-03-03T08:57:56.436Z,22.23
2023-03-03T09:00:26.452Z,31.43
2023-03-03T09:02:54.918Z,26.23
2023-03-03T09:05:25.345Z,20.50
2023-03-03T09:07:53.098Z,17.07
2023-03-03T09:10:27.256Z,23.10
2023-03-03T09:12:58.151Z,19.30
2023-03-03T09:15:28.523Z,20.07
2023-03-03T09:17:58.758Z,20.47
2023-03-03T09:20:35.556Z,18.07
2023-03-03T09:23:33.701Z,19.60
2023-03-03T09:26:26.981Z,36.87
2023-03-03T09:28:56.108Z,20.03
2023-03-03T09:31:27.213Z,43.53
2023-03-03T09:33:57.721Z,44.77
2023-03-03T09:36:30.402Z,22.23
2023-03-03T09:38:58.904Z,24.10
2023-03-03T09:41:52.781Z,29.73
2023-03-03T09:44:45.874Z,23.23
2023-03-03T09:47:28.606Z,20.90
2023-03-03T09:50:07.984Z,18.70
2023-03-03T09:52:46.715Z,19.10
2023-03-03T09:55:37.017Z,22.70
2023-03-03T09:58:32.964Z,26.27
2023-03-03T10:01:10.895Z,20.37
2023-03-03T10:03:52.286Z,23.80
2023-03-03T10:06:26.318Z,23.10
2023-03-03T10:09:05.535Z,22.70
2023-03-03T10:11:39.762Z,28.27
2023-03-03T10:14:23.396Z,23.13
2023-03-03T10:17:04.881Z,24.10
2023-03-03T10:19:41.184Z,25.17
2023-03-03T10:22:19.570Z,14.23
2023-03-03T10:25:03.660Z,27.00
2023-03-03T10:27:55.709Z,21.40
2023-03-03T10:30:41.189Z,25.37
2023-03-03T10:33:22.369Z,28.63
2023-03-03T10:36:17.857Z,25.20
2023-03-03T10:38:55.284Z,24.60
2023-03-03T10:41:45.638Z,23.60
2023-03-03T10:44:32.847Z,35.73
2023-03-03T10:47:15.734Z,32.63
2023-03-03T10:49:57.058Z,28.47
2023-03-03T10:52:38.110Z,30.63
2023-03-03T10:55:42.522Z,38.00
2023-03-03T10:58:41.688Z,33.83
2023-03-03T11:01:16.612Z,40.00
2023-03-03T11:04:23.309Z,32.47
2023-03-03T11:06:58.887Z,29.10
2023-03-03T11:09:44.807Z,27.57
2023-03-03T11:12:26.716Z,27.60
2023-03-03T11:15:10.660Z,36.63
2023-03-03T11:17:53.495Z,28.60
2023-03-03T11:20:33.192Z,27.17
2023-03-03T11:23:10.535Z,28.27
2023-03-03T11:25:44.909Z,28.87
2023-03-03T11:28:29.306Z,37.10
2023-03-03T11:31:12.793Z,37.93
2023-03-03T11:33:51.900Z,40.93
2023-03-03T11:36:24.096Z,27.20
2023-03-03T11:38:58.015Z,29.93
2023-03-03T11:41:32.722Z,21.00
2023-03-03T11:44:09.744Z,30.30
2023-03-03T11:46:43.901Z,29.37
2023-03-03T11:49:18.322Z,27.37
2023-03-03T11:51:56.015Z,26.47
2023-03-03T11:54:32.409Z,32.53
2023-03-03T11:57:15.996Z,33.43
2023-03-03T11:59:51.734Z,24.17
2023-03-03T12:02:47.032Z,21.60
2023-03-03T12:05:28.310Z,25.50
2023-03-03T12:08:05.744Z,31.87
2023-03-03T12:10:40.925Z,29.33
2023-03-03T12:13:15.854Z,24.20
2023-03-03T12:15:52.836Z,26.57
2023-03-03T12:18:37.381Z,23.87
2023-03-03T12:21:23.465Z,26.70
2023-03-03T12:24:09.807Z,33.40
2023-03-03T12:26:47.453Z,32.80
2023-03-03T12:29:26.944Z,28.83
2023-03-03T12:32:07.821Z,30.07
2023-03-03T12:34:42.792Z,25.47
2023-03-03T12:37:24.222Z,28.90
2023-03-03T12:40:03.781Z,20.50
2023-03-03T12:42:43.041Z,31.33
2023-03-03T12:45:26.090Z,23.30
2023-03-03T12:48:01.035Z,25.20
2023-03-03T12:50:49.217Z,28.60
2023-03-03T12:53:29.142Z,26.17
2023-03-03T12:56:02.392Z,19.23
2023-03-03T12:58:45.066Z,23.40
2023-03-03T13:01:34.752Z,24.97
2023-03-03T13:04:19.589Z,22.43
2023-03-03T13:07:01.511Z,23.77
2023-03-03T13:09:40.981Z,23.67
2023-03-03T13:12:31.701Z,26.23
2023-03-03T13:15:08.934Z,20.30
2023-03-03T13:17:49.416Z,22.50
2023-03-03T13:20:35.846Z,18.77
2023-03-03T13:23:12.230Z,24.73
2023-03-03T13:25:49.799Z,25.20
2023-03-03T13:28:33.084Z,23.93
2023-03-03T13:31:07.777Z,25.00
2023-03-03T13:33:37.158Z,26.83
2023-03-03T13:36:09.914Z,20.17
2023-03-03T13:38:48.731Z,26.10
2023-03-03T13:41:22.973Z,30.97
2023-03-03T13:43:58.358Z,22.10
2023-03-03T13:46:40.433Z,24.10
2023-03-03T13:49:27.401Z,26.70
2023-03-03T13:52:02.788Z,27.23
2023-03-03T13:54:53.252Z,18.90
2023-03-03T13:57:34.537Z,22.80
2023-03-03T14:00:14.646Z,20.43
2023-03-03T14:03:05.185Z,22.83
2023-03-03T14:05:39.212Z,20.80
2023-03-03T14:08:13.639Z,25.50
2023-03-03T14:10:48.526Z,23.73
2023-03-03T14:13:21.564Z,30.00
2023-03-03T14:15:56.492Z,20.37
2023-03-03T14:18:30.861Z,24.10
2023-03-03T14:21:05.743Z,20.70
2023-03-03T14:23:41.575Z,22.90
2023-03-03T14:26:12.029Z,24.67
2023-03-03T14:28:41.763Z,22.80
2023-03-03T14:31:18.892Z,18.83
2023-03-03T14:34:02.163Z,31.40
2023-03-03T14:36:33.396Z,23.50
2023-03-03T14:39:02.263Z,18.50
2023-03-03T14:41:42.054Z,18.60
2023-03-03T14:44:30.681Z,22.27
2023-03-03T14:47:23.713Z,20.23
2023-03-03T14:49:58.391Z,19.30
2023-03-03T14:52:33.750Z,20.47
2023-03-03T14:55:06.437Z,27.17
2023-03-03T14:57:48.138Z,18.73
2023-03-03T15:00:36.665Z,17.60
2023-03-03T15:03:23.980Z,17.77
2023-03-03T15:05:53.623Z,26.50
2023-03-03T15:08:32.759Z,19.77
2023-03-03T15:11:29.852Z,30.87
2023-03-03T15:14:13.380Z,24.27
2023-03-03T15:16:47.000Z,21.10
2023-03-03T15:20:18.650Z,18.20
2023-03-03T15:22:54.403Z,25.90
2023-03-03T15:25:43.783Z,26.83
2023-03-03T15:28:28.704Z,22.60
2023-03-03T15:31:13.835Z,24.00
2023-03-03T15:33:48.388Z,26.37
2023-03-03T15:36:35.567Z,24.03
2023-03-03T15:39:22.865Z,33.47
2023-03-03T15:42:07.291Z,27.97
2023-03-03T15:44:49.992Z,28.93
2023-03-03T15:47:36.366Z,24.10
2023-03-03T15:50:28.545Z,18.77
2023-03-03T15:53:12.213Z,25.30
2023-03-03T15:55:51.600Z,16.47
2023-03-03T15:58:56.330Z,28.83
2023-03-03T16:01:29.749Z,24.93
2023-03-03T16:04:02.060Z,18.40
2023-03-03T16:06:42.014Z,18.60
2023-03-03T16:09:28.695Z,23.20
2023-03-03T16:12:12.818Z,19.20
2023-03-03T16:14:55.387Z,22.73
2023-03-03T16:17:31.311Z,23.37
2023-03-03T16:20:14.848Z,20.40
2023-03-03T16:23:09.327Z,19.70
2023-03-03T16:25:53.307Z,20.43
2023-03-03T16:28:27.102Z,26.40
2023-03-03T16:31:04.086Z,21.47
2023-03-03T16:33:43.801Z,21.63
2023-03-03T16:36:29.735Z,25.40
2023-03-03T16:39:04.345Z,17.50
2023-03-03T16:41:44.038Z,23.93
2023-03-03T16:44:31.447Z,25.10
2023-03-03T16:47:11.759Z,29.60
2023-03-03T16:49:49.693Z,29.33
2023-03-03T16:52:25.257Z,26.80
2023-03-03T16:54:58.010Z,49.17
2023-03-03T16:57:33.956Z,40.03
2023-03-03T17:00:07.480Z,37.57
2023-03-03T17:02:56.115Z,39.70
2023-03-03T17:05:36.731Z,45.07
2023-03-03T17:08:27.380Z,33.67
2023-03-03T17:11:03.880Z,44.53
2023-03-03T17:13:52.939Z,39.63
2023-03-03T17:16:28.676Z,47.23
2023-03-03T17:19:07.632Z,42.60
2023-03-03T17:21:46.972Z,37.80
2023-03-03T17:24:24.310Z,45.73
2023-03-03T17:27:08.678Z,44.87
2023-03-03T17:29:50.383Z,44.03
2023-03-03T17:32:29.799Z,42.30
2023-03-03T17:35:15.084Z,40.17
2023-03-03T17:37:54.157Z,39.20
2023-03-03T17:40:40.461Z,40.80
2023-03-03T17:43:14.616Z,41.90
2023-03-03T17:45:46.376Z,40.80
2023-03-03T17:48:34.270Z,36.73
2023-03-03T17:51:25.776Z,26.40
2023-03-03T17:54:09.176Z,33.30
2023-03-03T17:56:48.369Z,30.93
2023-03-03T17:59:28.270Z,27.37
2023-03-03T18:02:18.378Z,30.83
2023-03-03T18:05:24.185Z,33.97
2023-03-03T18:08:03.983Z,23.97
2023-03-03T18:11:09.681Z,20.43
2023-03-03T18:13:52.928Z,26.33
2023-03-03T18:16:34.447Z,31.03
2023-03-03T18:19:13.867Z,25.57
2023-03-03T18:21:50.361Z,35.00
2023-03-03T18:24:31.692Z,22.43
2023-03-03T18:27:30.720Z,26.83
2023-03-03T18:30:24.909Z,21.03
2023-03-03T18:33:15.174Z,27.43
2023-03-03T18:35:45.292Z,24.50
2023-03-03T18:38:29.095Z,25.17
2023-03-03T18:41:00.258Z,24.90
2023-03-03T18:44:00.488Z,20.23
2023-03-03T18:46:55.511Z,26.13
2023-03-03T18:49:55.511Z,23.33
2023-03-03T18:52:26.184Z,19.47
2023-03-03T18:55:23.531Z,29.33
2023-03-03T18:58:30.091Z,18.87
2023-03-03T19:01:00.465Z,21.70
2023-03-03T19:03:32.264Z,20.93
2023-03-03T19:06:02.539Z,23.43
2023-03-03T19:08:44.167Z,26.17
2023-03-03T19:11:36.322Z,30.53
2023-03-03T19:14:19.104Z,22.80
2023-03-03T19:16:46.839Z,26.13
2023-03-03T19:19:17.034Z,18.30
2023-03-03T19:21:51.112Z,25.20
2023-03-03T19:24:33.595Z,19.87
2023-03-03T19:27:31.739Z,18.87
2023-03-03T19:30:22.658Z,15.70
2023-03-03T19:33:19.392Z,23.13
2023-03-03T19:35:57.938Z,24.43
2023-03-03T19:38:37.297Z,22.57
2023-03-03T19:41:23.500Z,22.10
2023-03-03T19:44:01.775Z,30.10
2023-03-03T19:46:53.146Z,25.10
2023-03-03T19:49:29.274Z,17.30
2023-03-03T19:52:08.376Z,22.50
2023-03-03T19:54:52.294Z,19.60
2023-03-03T19:57:39.535Z,22.00
2023-03-03T20:00:14.513Z,28.47
2023-03-03T20:02:52.899Z,29.00
2023-03-03T20:05:33.012Z,25.43
2023-03-03T20:08:06.628Z,29.73
2023-03-03T20:10:47.426Z,22.30
2023-03-03T20:13:32.147Z,26.57
2023-03-03T20:16:09.010Z,21.63
2023-03-03T20:18:50.476Z,19.80
2023-03-03T20:21:28.841Z,21.23
2023-03-03T20:24:17.995Z,25.33
2023-03-03T20:26:58.526Z,30.50
2023-03-03T20:29:41.393Z,24.53
2023-03-03T20:32:17.150Z,25.67
2023-03-03T20:34:53.908Z,17.97
2023-03-03T20:37:26.496Z,18.60
2023-03-03T20:40:04.917Z,17.50
2023-03-03T20:42:44.802Z,20.67
2023-03-03T20:45:25.276Z,20.30
2023-03-03T20:48:03.489Z,22.53
2023-03-03T20:50:37.442Z,15.63
2023-03-03T20:53:26.380Z,17.50
2023-03-03T20:56:04.021Z,23.17
2023-03-03T20:58:43.715Z,18.07
2023-03-03T21:01:15.485Z,16.87
2023-03-03T21:03:45.166Z,16.40
2023-03-03T21:06:15.470Z,11.30
2023-03-03T21:08:49.761Z,13.43
2023-03-03T21:11:19.083Z,15.47
2023-03-03T21:13:49.198Z,13.03
2023-03-03T21:16:30.822Z,9.97
2023-03-03T21:18:59.247Z,13.63
2023-03-03T21:21:27.901Z,12.00
2023-03-03T21:23:55.544Z,12.33
2023-03-03T21:26:46.939Z,7.23
2023-03-03T21:29:21.198Z,23.10
2023-03-03T21:31:50.495Z,12.93
2023-03-03T21:34:26.681Z,15.00
2023-03-03T21:36:55.180Z,12.57
2023-03-03T21:39:26.065Z,9.07
2023-03-03T21:41:56.135Z,15.47
2023-03-03T21:44:38.839Z,10.13
2023-03-03T21:47:07.750Z,18.60
2023-03-03T21:49:35.448Z,12.13
2023-03-03T21:52:03.298Z,14.27
2023-03-03T21:54:30.727Z,11.30
2023-03-03T21:56:58.308Z,11.97
2023-03-03T21:59:25.812Z,11.00
2023-03-03T22:01:55.118Z,7.87
2023-03-03T22:04:24.763Z,8.90
2023-03-03T22:06:53.942Z,10.73
2023-03-03T22:09:21.510Z,7.53
2023-03-03T22:11:49.340Z,7.53
2023-03-03T22:14:16.916Z,10.13
2023-03-03T22:16:44.466Z,5.57
2023-03-03T22:19:13.430Z,7.10
2023-03-03T22:21:41.454Z,14.73
2023-03-03T22:24:09.975Z,7.40
2023-03-03T22:26:37.483Z,9.67
2023-03-03T22:29:05.811Z,10.03
2023-03-03T22:31:33.631Z,6.70
2023-03-03T22:34:01.226Z,13.20
2023-03-03T22:36:30.010Z,12.13
2023-03-03T22:38:57.480Z,14.90
2023-03-03T22:41:25.027Z,14.50
2023-03-03T22:43:52.603Z,9.30
2023-03-03T22:46:20.112Z,15.27
2023-03-03T22:48:47.844Z,15.00
2023-03-03T22:51:15.354Z,13.70
2023-03-03T22:53:44.413Z,8.50
2023-03-03T22:56:11.904Z,10.20
2023-03-03T22:58:39.756Z,7.67
2023-03-03T23:01:07.270Z,13.43
2023-03-03T23:03:34.809Z,5.53
2023-03-03T23:06:02.355Z,21.37
2023-03-03T23:08:30.098Z,6.23
2023-03-03T23:10:59.011Z,10.77
2023-03-03T23:13:27.325Z,8.57
2023-03-03T23:15:58.325Z,9.60
2023-03-03T23:18:25.876Z,8.67
2023-03-03T23:20:53.447Z,9.27
2023-03-03T23:23:21.047Z,9.00
2023-03-03T23:25:48.583Z,9.17
2023-03-03T23:28:18.281Z,5.83
2023-03-03T23:30:46.098Z,8.67
2023-03-03T23:33:13.742Z,7.90
2023-03-03T23:35:41.267Z,10.90
2023-03-03T23:38:15.156Z,13.70
2023-03-03T23:40:42.765Z,6.83
2023-03-03T23:43:10.833Z,8.50
2023-03-03T23:45:39.626Z,13.23
2023-03-03T23:48:07.686Z,12.30
2023-03-03T23:50:37.092Z,4.73
2023-03-03T23:53:07.726Z,10.87
2023-03-03T23:55:36.028Z,6.67
2023-03-03T23:58:03.493Z,8.60
